sensor_id;sensor_type;location;lat;lon;timestamp;pressure;altitude;pressure_sealevel;temperature;humidity
829;BME280;396;52.558;13.188;2023-11-21T00:01:10;100346.66;;;8.07;100.00
829;BME280;396;52.558;13.188;2023-11-21T00:03:37;100346.72;;;8.02;100.00
829;BME280;396;52.558;13.188;2023-11-21T00:06:04;100345.94;;;8.01;100.00
829;BME280;396;52.558;13.188;2023-11-21T00:08:36;100354.28;;;8.00;100.00
829;BME280;396;52.558;13.188;2023-11-21T00:11:03;100351.72;;;7.90;100.00
829;BME280;396;52.558;13.188;2023-11-21T00:13:31;100358.50;;;7.87;100.00
829;BME280;396;52.558;13.188;2023-11-21T00:15:58;100354.75;;;7.83;100.00
829;BME280;396;52.558;13.188;2023-11-21T00:18:25;100360.22;;;7.78;100.00
829;BME280;396;52.558;13.188;2023-11-21T00:20:51;100366.94;;;7.80;100.00
829;BME280;396;52.558;13.188;2023-11-21T00:23:18;100368.31;;;7.78;100.00
829;BME280;396;52.558;13.188;2023-11-21T00:25:46;100372.97;;;7.72;100.00
829;BME280;396;52.558;13.188;2023-11-21T00:28:13;100375.66;;;7.72;100.00
829;BME280;396;52.558;13.188;2023-11-21T00:30:40;100374.84;;;7.72;100.00
829;BME280;396;52.558;13.188;2023-11-21T00:33:07;100381.00;;;7.77;100.00
829;BME280;396;52.558;13.188;2023-11-21T00:35:33;100377.19;;;7.78;100.00
829;BME280;396;52.558;13.188;2023-11-21T00:38:00;100379.09;;;7.78;100.00
829;BME280;396;52.558;13.188;2023-11-21T00:40:28;100383.13;;;7.80;100.00
829;BME280;396;52.558;13.188;2023-11-21T00:42:58;100390.91;;;7.82;100.00
829;BME280;396;52.558;13.188;2023-11-21T00:45:24;100393.34;;;7.83;100.00
829;BME280;396;52.558;13.188;2023-11-21T00:47:51;100388.63;;;7.70;100.00
829;BME280;396;52.558;13.188;2023-11-21T00:50:18;100388.16;;;7.63;100.00
829;BME280;396;52.558;13.188;2023-11-21T00:52:44;100385.75;;;7.62;100.00
829;BME280;396;52.558;13.188;2023-11-21T00:55:11;100392.75;;;7.63;100.00
829;BME280;396;52.558;13.188;2023-11-21T00:57:38;100393.88;;;7.56;100.00
829;BME280;396;52.558;13.188;2023-11-21T01:00:08;100394.72;;;7.52;100.00
829;BME280;396;52.558;13.188;2023-11-21T01:02:38;100406.59;;;7.51;100.00
829;BME280;396;52.558;13.188;2023-11-21T01:05:05;100405.50;;;7.52;100.00
829;BME280;396;52.558;13.188;2023-11-21T01:07:33;100415.50;;;7.51;100.00
829;BME280;396;52.558;13.188;2023-11-21T01:09:59;100410.91;;;7.52;100.00
829;BME280;396;52.558;13.188;2023-11-21T01:12:26;100419.28;;;7.50;100.00
829;BME280;396;52.558;13.188;2023-11-21T01:14:53;100420.19;;;7.41;100.00
829;BME280;396;52.558;13.188;2023-11-21T01:17:21;100419.66;;;7.39;100.00
829;BME280;396;52.558;13.188;2023-11-21T01:19:49;100425.34;;;7.37;100.00
829;BME280;396;52.558;13.188;2023-11-21T01:22:15;100427.78;;;7.33;100.00
829;BME280;396;52.558;13.188;2023-11-21T01:24:43;100429.97;;;7.31;100.00
829;BME280;396;52.558;13.188;2023-11-21T01:27:09;100429.97;;;7.31;100.00
829;BME280;396;52.558;13.188;2023-11-21T01:29:36;100427.84;;;7.28;100.00
829;BME280;396;52.558;13.188;2023-11-21T01:32:03;100439.47;;;7.24;100.00
829;BME280;396;52.558;13.188;2023-11-21T01:34:31;100440.78;;;7.26;100.00
829;BME280;396;52.558;13.188;2023-11-21T01:36:57;100445.66;;;7.24;100.00
829;BME280;396;52.558;13.188;2023-11-21T01:39:24;100440.56;;;7.23;100.00
829;BME280;396;52.558;13.188;2023-11-21T01:41:52;100440.00;;;7.21;100.00
829;BME280;396;52.558;13.188;2023-11-21T01:44:18;100442.16;;;7.24;100.00
829;BME280;396;52.558;13.188;2023-11-21T01:46:45;100441.84;;;7.25;100.00
829;BME280;396;52.558;13.188;2023-11-21T01:49:13;100453.72;;;7.24;100.00
829;BME280;396;52.558;13.188;2023-11-21T01:51:43;100459.91;;;7.25;100.00
829;BME280;396;52.558;13.188;2023-11-21T01:54:10;100457.81;;;7.17;100.00
829;BME280;396;52.558;13.188;2023-11-21T01:56:37;100456.59;;;6.99;100.00
829;BME280;396;52.558;13.188;2023-11-21T01:59:04;100465.09;;;6.82;100.00
829;BME280;396;52.558;13.188;2023-11-21T02:01:32;100464.00;;;6.83;100.00
829;BME280;396;52.558;13.188;2023-11-21T02:03:59;100465.88;;;6.82;100.00
829;BME280;396;52.558;13.188;2023-11-21T02:06:27;100465.88;;;6.82;100.00
829;BME280;396;52.558;13.188;2023-11-21T02:08:57;100464.25;;;6.81;100.00
829;BME280;396;52.558;13.188;2023-11-21T02:11:25;100466.44;;;6.79;100.00
829;BME280;396;52.558;13.188;2023-11-21T02:13:52;100467.50;;;6.83;100.00
829;BME280;396;52.558;13.188;2023-11-21T02:16:20;100459.91;;;6.86;100.00
829;BME280;396;52.558;13.188;2023-11-21T02:18:47;100468.00;;;6.91;100.00
829;BME280;396;52.558;13.188;2023-11-21T02:21:14;100470.69;;;6.91;100.00
829;BME280;396;52.558;13.188;2023-11-21T02:23:43;100470.94;;;6.89;100.00
829;BME280;396;52.558;13.188;2023-11-21T02:26:11;100476.31;;;6.89;100.00
829;BME280;396;52.558;13.188;2023-11-21T02:28:39;100471.22;;;6.88;100.00
829;BME280;396;52.558;13.188;2023-11-21T02:31:06;100479.81;;;6.90;100.00
829;BME280;396;52.558;13.188;2023-11-21T02:33:33;100481.19;;;6.87;100.00
829;BME280;396;52.558;13.188;2023-11-21T02:35:59;100480.94;;;6.83;100.00
829;BME280;396;52.558;13.188;2023-11-21T02:38:26;100488.25;;;6.78;100.00
829;BME280;396;52.558;13.188;2023-11-21T02:40:55;100476.69;;;6.77;100.00
829;BME280;396;52.558;13.188;2023-11-21T02:43:22;100477.19;;;6.79;100.00
829;BME280;396;52.558;13.188;2023-11-21T02:45:49;100482.59;;;6.79;100.00
829;BME280;396;52.558;13.188;2023-11-21T02:48:15;100490.69;;;6.74;100.00
829;BME280;396;52.558;13.188;2023-11-21T02:50:42;100485.59;;;6.68;100.00
829;BME280;396;52.558;13.188;2023-11-21T02:53:09;100489.63;;;6.70;100.00
829;BME280;396;52.558;13.188;2023-11-21T02:55:36;100488.03;;;6.69;100.00
829;BME280;396;52.558;13.188;2023-11-21T02:58:04;100486.66;;;6.72;100.00
829;BME280;396;52.558;13.188;2023-11-21T03:00:31;100493.91;;;6.76;100.00
829;BME280;396;52.558;13.188;2023-11-21T03:02:58;100493.09;;;6.76;100.00
829;BME280;396;52.558;13.188;2023-11-21T03:05:24;100497.16;;;6.73;100.00
829;BME280;396;52.558;13.188;2023-11-21T03:07:51;100496.09;;;6.69;100.00
829;BME280;396;52.558;13.188;2023-11-21T03:10:17;100507.94;;;6.68;100.00
829;BME280;396;52.558;13.188;2023-11-21T03:12:44;100506.06;;;6.69;100.00
829;BME280;396;52.558;13.188;2023-11-21T03:15:12;100511.16;;;6.70;100.00
829;BME280;396;52.558;13.188;2023-11-21T03:17:40;100512.50;;;6.68;100.00
829;BME280;396;52.558;13.188;2023-11-21T03:20:08;100519.81;;;6.62;100.00
829;BME280;396;52.558;13.188;2023-11-21T03:22:36;100517.19;;;6.52;100.00
829;BME280;396;52.558;13.188;2023-11-21T03:25:03;100526.59;;;6.49;100.00
829;BME280;396;52.558;13.188;2023-11-21T03:27:31;100534.94;;;6.48;100.00
829;BME280;396;52.558;13.188;2023-11-21T03:29:58;100538.41;;;6.53;100.00
829;BME280;396;52.558;13.188;2023-11-21T03:32:26;100540.31;;;6.53;100.00
829;BME280;396;52.558;13.188;2023-11-21T03:34:54;100533.00;;;6.58;100.00
829;BME280;396;52.558;13.188;2023-11-21T03:37:22;100535.16;;;6.62;100.00
829;BME280;396;52.558;13.188;2023-11-21T03:39:48;100536.50;;;6.59;100.00
829;BME280;396;52.558;13.188;2023-11-21T03:42:15;100549.97;;;6.59;100.00
829;BME280;396;52.558;13.188;2023-11-21T03:44:42;100547.25;;;6.59;100.00
829;BME280;396;52.558;13.188;2023-11-21T03:47:08;100552.66;;;6.59;100.00
829;BME280;396;52.558;13.188;2023-11-21T03:49:37;100558.56;;;6.61;100.00
829;BME280;396;52.558;13.188;2023-11-21T03:52:04;100558.03;;;6.64;100.00
829;BME280;396;52.558;13.188;2023-11-21T03:54:33;100564.47;;;6.63;100.00
829;BME280;396;52.558;13.188;2023-11-21T03:56:59;100573.13;;;6.50;100.00
829;BME280;396;52.558;13.188;2023-11-21T03:59:26;100570.47;;;6.45;100.00
829;BME280;396;52.558;13.188;2023-11-21T04:01:55;100575.06;;;6.39;100.00
829;BME280;396;52.558;13.188;2023-11-21T04:04:22;100575.59;;;6.46;100.00
829;BME280;396;52.558;13.188;2023-11-21T04:06:50;100579.06;;;6.52;100.00
829;BME280;396;52.558;13.188;2023-11-21T04:09:18;100581.47;;;6.53;100.00
829;BME280;396;52.558;13.188;2023-11-21T04:11:44;100582.28;;;6.54;100.00
829;BME280;396;52.558;13.188;2023-11-21T04:14:12;100598.97;;;6.51;100.00
829;BME280;396;52.558;13.188;2023-11-21T04:16:38;100596.84;;;6.43;100.00
829;BME280;396;52.558;13.188;2023-11-21T04:19:05;100606.53;;;6.44;100.00
829;BME280;396;52.558;13.188;2023-11-21T04:21:31;100607.34;;;6.39;100.00
829;BME280;396;52.558;13.188;2023-11-21T04:24:00;100608.72;;;6.26;100.00
829;BME280;396;52.558;13.188;2023-11-21T04:26:26;100604.13;;;6.27;100.00
829;BME280;396;52.558;13.188;2023-11-21T04:28:53;100608.16;;;6.35;100.00
829;BME280;396;52.558;13.188;2023-11-21T04:31:20;100608.97;;;6.35;100.00
829;BME280;396;52.558;13.188;2023-11-21T04:33:46;100607.63;;;6.38;100.00
829;BME280;396;52.558;13.188;2023-11-21T04:36:13;100620.00;;;6.34;100.00
829;BME280;396;52.558;13.188;2023-11-21T04:38:39;100615.16;;;6.36;100.00
829;BME280;396;52.558;13.188;2023-11-21T04:41:08;100620.50;;;6.41;100.00
829;BME280;396;52.558;13.188;2023-11-21T04:43:34;100623.47;;;6.39;100.00
829;BME280;396;52.558;13.188;2023-11-21T04:46:01;100618.91;;;6.40;100.00
829;BME280;396;52.558;13.188;2023-11-21T04:48:28;100625.09;;;6.40;100.00
829;BME280;396;52.558;13.188;2023-11-21T04:50:55;100616.47;;;6.43;100.00
829;BME280;396;52.558;13.188;2023-11-21T04:53:21;100626.69;;;6.41;100.00
829;BME280;396;52.558;13.188;2023-11-21T04:55:48;100628.34;;;6.42;100.00
829;BME280;396;52.558;13.188;2023-11-21T04:58:16;100631.28;;;6.41;100.00
829;BME280;396;52.558;13.188;2023-11-21T05:00:43;100628.88;;;6.39;100.00
829;BME280;396;52.558;13.188;2023-11-21T05:03:09;100639.34;;;6.41;100.00
829;BME280;396;52.558;13.188;2023-11-21T05:05:36;100640.97;;;6.37;100.00
829;BME280;396;52.558;13.188;2023-11-21T05:08:03;100639.34;;;6.36;100.00
829;BME280;396;52.558;13.188;2023-11-21T05:10:30;100647.16;;;6.37;100.00
829;BME280;396;52.558;13.188;2023-11-21T05:12:57;100647.16;;;6.37;100.00
829;BME280;396;52.558;13.188;2023-11-21T05:15:25;100657.66;;;6.34;100.00
829;BME280;396;52.558;13.188;2023-11-21T05:17:52;100655.50;;;6.30;100.00
829;BME280;396;52.558;13.188;2023-11-21T05:20:20;100657.41;;;6.25;100.00
829;BME280;396;52.558;13.188;2023-11-21T05:22:47;100663.59;;;6.25;100.00
829;BME280;396;52.558;13.188;2023-11-21T05:25:14;100670.03;;;6.24;100.00
829;BME280;396;52.558;13.188;2023-11-21T05:27:42;100671.09;;;6.28;100.00
829;BME280;396;52.558;13.188;2023-11-21T05:30:09;100670.03;;;6.24;100.00
829;BME280;396;52.558;13.188;2023-11-21T05:32:38;100678.38;;;6.18;100.00
829;BME280;396;52.558;13.188;2023-11-21T05:35:05;100677.84;;;6.16;100.00
829;BME280;396;52.558;13.188;2023-11-21T05:37:35;100685.66;;;6.07;100.00
829;BME280;396;52.558;13.188;2023-11-21T05:40:05;100688.31;;;6.02;100.00
829;BME280;396;52.558;13.188;2023-11-21T05:42:32;100689.38;;;6.06;100.00
829;BME280;396;52.558;13.188;2023-11-21T05:44:59;100692.06;;;6.01;100.00
829;BME280;396;52.558;13.188;2023-11-21T05:47:35;100697.16;;;5.97;100.00
829;BME280;396;52.558;13.188;2023-11-21T05:50:05;100697.72;;;5.99;100.00
829;BME280;396;52.558;13.188;2023-11-21T05:52:35;100702.03;;;5.95;100.00
829;BME280;396;52.558;13.188;2023-11-21T05:55:01;100700.94;;;5.96;100.00
829;BME280;396;52.558;13.188;2023-11-21T05:57:29;100706.59;;;6.05;100.00
829;BME280;396;52.558;13.188;2023-11-21T05:59:55;100702.53;;;5.97;100.00
829;BME280;396;52.558;13.188;2023-11-21T06:02:22;100709.28;;;5.95;100.00
829;BME280;396;52.558;13.188;2023-11-21T06:04:49;100724.84;;;5.93;100.00
829;BME280;396;52.558;13.188;2023-11-21T06:07:17;100728.31;;;5.78;100.00
829;BME280;396;52.558;13.188;2023-11-21T06:09:44;100722.66;;;5.79;100.00
829;BME280;396;52.558;13.188;2023-11-21T06:12:11;100730.47;;;5.81;100.00
829;BME280;396;52.558;13.188;2023-11-21T06:14:38;100731.28;;;5.81;100.00
829;BME280;396;52.558;13.188;2023-11-21T06:17:04;100728.06;;;5.90;100.00
829;BME280;396;52.558;13.188;2023-11-21T06:19:31;100731.59;;;5.95;100.00
829;BME280;396;52.558;13.188;2023-11-21T06:21:57;100748.19;;;5.82;100.00
829;BME280;396;52.558;13.188;2023-11-21T06:24:26;100742.53;;;5.68;100.00
829;BME280;396;52.558;13.188;2023-11-21T06:26:53;100750.06;;;5.71;100.00
829;BME280;396;52.558;13.188;2023-11-21T06:29:20;100757.59;;;5.74;100.00
829;BME280;396;52.558;13.188;2023-11-21T06:31:47;100757.56;;;5.69;100.00
829;BME280;396;52.558;13.188;2023-11-21T06:34:13;100767.53;;;5.74;100.00
829;BME280;396;52.558;13.188;2023-11-21T06:36:40;100766.19;;;5.76;100.00
829;BME280;396;52.558;13.188;2023-11-21T06:39:07;100774.50;;;5.70;100.00
829;BME280;396;52.558;13.188;2023-11-21T06:41:35;100783.09;;;5.67;100.00
829;BME280;396;52.558;13.188;2023-11-21T06:44:04;100774.78;;;5.68;100.00
829;BME280;396;52.558;13.188;2023-11-21T06:46:31;100781.75;;;5.69;100.00
829;BME280;396;52.558;13.188;2023-11-21T06:48:58;100793.03;;;5.66;100.00
829;BME280;396;52.558;13.188;2023-11-21T06:51:25;100793.00;;;5.61;100.00
829;BME280;396;52.558;13.188;2023-11-21T06:53:51;100798.94;;;5.63;100.00
829;BME280;396;52.558;13.188;2023-11-21T06:56:18;100797.84;;;5.59;100.00
829;BME280;396;52.558;13.188;2023-11-21T06:58:46;100795.94;;;5.54;100.00
829;BME280;396;52.558;13.188;2023-11-21T07:01:14;100803.22;;;5.59;100.00
829;BME280;396;52.558;13.188;2023-11-21T07:03:41;100804.25;;;5.53;100.00
829;BME280;396;52.558;13.188;2023-11-21T07:06:08;100808.56;;;5.54;100.00
829;BME280;396;52.558;13.188;2023-11-21T07:08:35;100804.84;;;5.60;100.00
829;BME280;396;52.558;13.188;2023-11-21T07:11:02;100804.84;;;5.60;100.00
829;BME280;396;52.558;13.188;2023-11-21T07:13:29;100807.00;;;5.63;100.00
829;BME280;396;52.558;13.188;2023-11-21T07:15:57;100799.22;;;5.67;100.00
829;BME280;396;52.558;13.188;2023-11-21T07:18:24;100800.03;;;5.67;100.00
829;BME280;396;52.558;13.188;2023-11-21T07:20:50;100799.50;;;5.70;100.00
829;BME280;396;52.558;13.188;2023-11-21T07:23:17;100804.34;;;5.68;100.00
829;BME280;396;52.558;13.188;2023-11-21T07:25:44;100801.38;;;5.70;100.00
829;BME280;396;52.558;13.188;2023-11-21T07:28:11;100802.44;;;5.64;100.00
829;BME280;396;52.558;13.188;2023-11-21T07:30:37;100807.28;;;5.67;100.00
829;BME280;396;52.558;13.188;2023-11-21T07:33:08;100804.88;;;5.70;100.00
829;BME280;396;52.558;13.188;2023-11-21T07:35:34;100817.78;;;5.78;100.00
829;BME280;396;52.558;13.188;2023-11-21T07:38:01;100825.34;;;5.76;100.00
829;BME280;396;52.558;13.188;2023-11-21T07:40:29;100812.41;;;5.68;100.00
829;BME280;396;52.558;13.188;2023-11-21T07:42:55;100824.72;;;5.64;100.00
829;BME280;396;52.558;13.188;2023-11-21T07:45:23;100827.44;;;5.69;100.00
829;BME280;396;52.558;13.188;2023-11-21T07:47:49;100821.78;;;5.66;100.00
829;BME280;396;52.558;13.188;2023-11-21T07:50:18;100830.41;;;5.73;100.00
829;BME280;396;52.558;13.188;2023-11-21T07:52:45;100834.72;;;5.74;100.00
829;BME280;396;52.558;13.188;2023-11-21T07:55:12;100840.66;;;5.76;100.00
829;BME280;396;52.558;13.188;2023-11-21T07:57:39;100848.97;;;5.74;100.00
829;BME280;396;52.558;13.188;2023-11-21T08:00:07;100846.28;;;5.74;100.00
829;BME280;396;52.558;13.188;2023-11-21T08:02:37;100844.66;;;5.73;100.00
829;BME280;396;52.558;13.188;2023-11-21T08:05:04;100849.44;;;5.66;100.00
829;BME280;396;52.558;13.188;2023-11-21T08:07:33;100855.06;;;5.60;100.00
829;BME280;396;52.558;13.188;2023-11-21T08:10:01;100859.09;;;5.57;100.00
829;BME280;396;52.558;13.188;2023-11-21T08:12:28;100854.28;;;5.64;100.00
829;BME280;396;52.558;13.188;2023-11-21T08:14:55;100854.81;;;5.66;100.00
829;BME280;396;52.558;13.188;2023-11-21T08:17:21;100855.66;;;5.67;100.00
829;BME280;396;52.558;13.188;2023-11-21T08:19:48;100860.50;;;5.70;100.00
829;BME280;396;52.558;13.188;2023-11-21T08:22:16;100859.97;;;5.68;100.00
829;BME280;396;52.558;13.188;2023-11-21T08:24:44;100877.19;;;5.72;100.00
829;BME280;396;52.558;13.188;2023-11-21T08:27:12;100874.00;;;5.80;100.00
829;BME280;396;52.558;13.188;2023-11-21T08:29:41;100878.59;;;5.85;100.00
829;BME280;396;52.558;13.188;2023-11-21T08:32:08;100877.28;;;5.92;100.00
829;BME280;396;52.558;13.188;2023-11-21T08:34:35;100879.47;;;5.95;100.00
829;BME280;396;52.558;13.188;2023-11-21T08:37:02;100881.88;;;5.97;100.00
829;BME280;396;52.558;13.188;2023-11-21T08:39:29;100886.72;;;5.95;100.00
829;BME280;396;52.558;13.188;2023-11-21T08:41:57;100884.78;;;5.90;100.00
829;BME280;396;52.558;13.188;2023-11-21T08:44:24;100904.47;;;5.96;100.00
829;BME280;396;52.558;13.188;2023-11-21T08:46:50;100897.50;;;6.00;100.00
829;BME280;396;52.558;13.188;2023-11-21T08:49:17;100897.78;;;6.03;100.00
829;BME280;396;52.558;13.188;2023-11-21T08:51:44;100904.25;;;6.02;100.00
829;BME280;396;52.558;13.188;2023-11-21T08:54:11;100901.81;;;6.06;100.00
829;BME280;396;52.558;13.188;2023-11-21T08:56:38;100903.69;;;6.05;100.00
829;BME280;396;52.558;13.188;2023-11-21T08:59:06;100909.88;;;6.06;100.00
829;BME280;396;52.558;13.188;2023-11-21T09:01:33;100910.66;;;5.96;100.00
829;BME280;396;52.558;13.188;2023-11-21T09:03:59;100909.53;;;5.92;100.00
829;BME280;396;52.558;13.188;2023-11-21T09:06:27;100918.63;;;5.81;100.00
829;BME280;396;52.558;13.188;2023-11-21T09:08:54;100914.56;;;5.83;100.00
829;BME280;396;52.558;13.188;2023-11-21T09:11:20;100922.91;;;5.82;100.00
829;BME280;396;52.558;13.188;2023-11-21T09:13:47;100932.56;;;5.78;100.00
829;BME280;396;52.558;13.188;2023-11-21T09:16:15;100936.06;;;5.78;100.00
829;BME280;396;52.558;13.188;2023-11-21T09:18:42;100946.28;;;5.76;100.00
829;BME280;396;52.558;13.188;2023-11-21T09:21:09;100949.50;;;5.78;100.00
829;BME280;396;52.558;13.188;2023-11-21T09:23:35;100953.03;;;5.84;100.00
829;BME280;396;52.558;13.188;2023-11-21T09:26:02;100952.44;;;5.72;100.00
829;BME280;396;52.558;13.188;2023-11-21T09:28:30;100957.50;;;5.68;100.00
829;BME280;396;52.558;13.188;2023-11-21T09:30:57;100955.91;;;5.67;100.00
829;BME280;396;52.558;13.188;2023-11-21T09:33:25;100969.88;;;5.69;100.00
829;BME280;396;52.558;13.188;2023-11-21T09:35:51;100964.81;;;5.78;100.00
829;BME280;396;52.558;13.188;2023-11-21T09:38:19;100968.81;;;5.75;100.00
829;BME280;396;52.558;13.188;2023-11-21T09:40:45;100970.75;;;5.80;100.00
829;BME280;396;52.558;13.188;2023-11-21T09:43:16;100972.81;;;5.68;100.00
829;BME280;396;52.558;13.188;2023-11-21T09:45:46;100970.09;;;5.63;100.00
829;BME280;396;52.558;13.188;2023-11-21T09:48:13;100978.97;;;5.63;100.00
829;BME280;396;52.558;13.188;2023-11-21T09:50:43;100986.00;;;5.69;100.00
829;BME280;396;52.558;13.188;2023-11-21T09:53:13;100992.97;;;5.70;100.00
829;BME280;396;52.558;13.188;2023-11-21T09:55:42;100975.84;;;5.76;100.00
829;BME280;396;52.558;13.188;2023-11-21T09:58:09;100973.38;;;5.75;100.00
829;BME280;396;52.558;13.188;2023-11-21T10:00:39;100985.53;;;5.82;100.00
829;BME280;396;52.558;13.188;2023-11-21T10:03:06;100987.44;;;5.82;100.00
829;BME280;396;52.558;13.188;2023-11-21T10:05:33;100994.72;;;5.87;100.00
829;BME280;396;52.558;13.188;2023-11-21T10:08:02;101000.91;;;5.87;100.00
829;BME280;396;52.558;13.188;2023-11-21T10:10:32;100992.56;;;5.89;100.00
829;BME280;396;52.558;13.188;2023-11-21T10:13:02;100993.41;;;5.89;100.00
829;BME280;396;52.558;13.188;2023-11-21T10:15:33;100987.00;;;5.95;100.00
829;BME280;396;52.558;13.188;2023-11-21T10:18:02;100989.44;;;6.02;100.00
829;BME280;396;52.558;13.188;2023-11-21T10:20:30;100997.47;;;5.97;100.00
829;BME280;396;52.558;13.188;2023-11-21T10:22:59;100991.56;;;5.95;100.00
829;BME280;396;52.558;13.188;2023-11-21T10:25:28;100996.69;;;5.96;100.00
829;BME280;396;52.558;13.188;2023-11-21T10:27:58;100993.78;;;6.08;100.00
829;BME280;396;52.558;13.188;2023-11-21T10:30:28;101000.78;;;6.09;100.00
829;BME280;396;52.558;13.188;2023-11-21T10:32:59;101004.56;;;6.13;100.00
829;BME280;396;52.558;13.188;2023-11-21T10:35:38;101009.94;;;6.08;100.00
829;BME280;396;52.558;13.188;2023-11-21T10:38:05;101005.56;;;6.02;100.00
829;BME280;396;52.558;13.188;2023-11-21T10:40:37;101010.44;;;6.05;100.00
829;BME280;396;52.558;13.188;2023-11-21T10:43:06;101006.13;;;6.04;100.00
829;BME280;396;52.558;13.188;2023-11-21T10:45:34;101011.19;;;5.95;100.00
829;BME280;396;52.558;13.188;2023-11-21T10:48:05;101016.97;;;5.77;100.00
829;BME280;396;52.558;13.188;2023-11-21T10:50:33;101021.53;;;5.76;100.00
829;BME280;396;52.558;13.188;2023-11-21T10:53:01;101025.81;;;5.72;100.00
829;BME280;396;52.558;13.188;2023-11-21T10:55:29;101024.41;;;5.65;100.00
829;BME280;396;52.558;13.188;2023-11-21T10:57:58;101024.66;;;5.63;100.00
829;BME280;396;52.558;13.188;2023-11-21T11:00:27;101030.03;;;5.63;100.00
829;BME280;396;52.558;13.188;2023-11-21T11:02:54;101033.72;;;5.57;100.00
829;BME280;396;52.558;13.188;2023-11-21T11:05:23;101032.97;;;5.62;100.00
829;BME280;396;52.558;13.188;2023-11-21T11:07:52;101030.06;;;5.68;100.00
829;BME280;396;52.558;13.188;2023-11-21T11:10:25;101034.38;;;5.69;100.00
829;BME280;396;52.558;13.188;2023-11-21T11:12:53;101036.50;;;5.67;100.00
829;BME280;396;52.558;13.188;2023-11-21T11:15:22;101046.16;;;5.63;100.00
829;BME280;396;52.558;13.188;2023-11-21T11:17:48;101031.66;;;5.64;100.00
829;BME280;396;52.558;13.188;2023-11-21T11:20:16;101049.06;;;5.62;100.00
829;BME280;396;52.558;13.188;2023-11-21T11:22:50;101043.66;;;5.56;100.00
829;BME280;396;52.558;13.188;2023-11-21T11:25:40;101053.16;;;5.64;100.00
829;BME280;396;52.558;13.188;2023-11-21T11:28:16;101055.31;;;5.67;100.00
829;BME280;396;52.558;13.188;2023-11-21T11:30:56;101057.91;;;5.57;100.00
829;BME280;396;52.558;13.188;2023-11-21T11:33:34;101058.47;;;5.59;100.00
829;BME280;396;52.558;13.188;2023-11-21T11:36:06;101068.63;;;5.52;100.00
829;BME280;396;52.558;13.188;2023-11-21T11:38:34;101073.94;;;5.47;100.00
829;BME280;396;52.558;13.188;2023-11-21T11:41:02;101079.88;;;5.49;100.00
829;BME280;396;52.558;13.188;2023-11-21T11:43:30;101077.78;;;5.56;100.00
829;BME280;396;52.558;13.188;2023-11-21T11:46:01;101080.63;;;5.44;100.00
829;BME280;396;52.558;13.188;2023-11-21T11:48:29;101077.44;;;5.47;100.00
829;BME280;396;52.558;13.188;2023-11-21T11:51:04;101078.50;;;5.46;100.00
829;BME280;396;52.558;13.188;2023-11-21T11:53:36;101093.81;;;5.46;100.00
829;BME280;396;52.558;13.188;2023-11-21T11:56:22;101098.66;;;5.49;100.00
829;BME280;396;52.558;13.188;2023-11-21T11:58:51;101095.97;;;5.49;100.00
829;BME280;396;52.558;13.188;2023-11-21T12:01:20;101099.69;;;5.43;100.00
829;BME280;396;52.558;13.188;2023-11-21T12:04:24;101105.66;;;5.45;100.00
829;BME280;396;52.558;13.188;2023-11-21T12:06:57;101111.88;;;5.50;100.00
829;BME280;396;52.558;13.188;2023-11-21T12:09:26;101104.72;;;5.34;100.00
829;BME280;396;52.558;13.188;2023-11-21T12:11:53;101109.59;;;5.37;100.00
829;BME280;396;52.558;13.188;2023-11-21T12:14:22;101112.59;;;5.41;100.00
829;BME280;396;52.558;13.188;2023-11-21T12:16:50;101118.75;;;5.41;100.00
829;BME280;396;52.558;13.188;2023-11-21T12:19:18;101123.91;;;5.48;100.00
829;BME280;396;52.558;13.188;2023-11-21T12:21:46;101126.28;;;5.44;100.00
829;BME280;396;52.558;13.188;2023-11-21T12:24:14;101130.22;;;5.31;100.00
829;BME280;396;52.558;13.188;2023-11-21T12:26:42;101134.16;;;5.24;100.00
829;BME280;396;52.558;13.188;2023-11-21T12:29:09;101139.22;;;5.20;100.00
829;BME280;396;52.558;13.188;2023-11-21T12:31:36;101149.16;;;5.20;100.00
829;BME280;396;52.558;13.188;2023-11-21T12:34:04;101147.97;;;5.11;100.00
829;BME280;396;52.558;13.188;2023-11-21T12:36:32;101147.97;;;5.11;100.00
829;BME280;396;52.558;13.188;2023-11-21T12:39:00;101156.78;;;5.06;100.00
829;BME280;396;52.558;13.188;2023-11-21T12:41:27;101156.84;;;5.11;100.00
829;BME280;396;52.558;13.188;2023-11-21T12:43:55;101153.50;;;5.04;100.00
829;BME280;396;52.558;13.188;2023-11-21T12:46:23;101146.53;;;5.03;100.00
829;BME280;396;52.558;13.188;2023-11-21T12:48:51;101155.22;;;5.10;100.00
829;BME280;396;52.558;13.188;2023-11-21T12:51:21;101158.97;;;5.09;100.00
829;BME280;396;52.558;13.188;2023-11-21T12:53:48;101162.69;;;5.08;100.00
829;BME280;396;52.558;13.188;2023-11-21T12:56:16;101165.22;;;5.15;100.00
829;BME280;396;52.558;13.188;2023-11-21T12:58:45;101164.13;;;5.16;100.00
829;BME280;396;52.558;13.188;2023-11-21T13:01:13;101183.03;;;5.04;100.00
829;BME280;396;52.558;13.188;2023-11-21T13:03:46;101183.50;;;4.96;100.00
829;BME280;396;52.558;13.188;2023-11-21T13:06:14;101185.22;;;4.85;100.00
829;BME280;396;52.558;13.188;2023-11-21T13:08:44;101183.75;;;4.77;100.00
829;BME280;396;52.558;13.188;2023-11-21T13:11:11;101193.38;;;4.73;100.00
829;BME280;396;52.558;13.188;2023-11-21T13:13:40;101186.38;;;4.72;100.00
829;BME280;396;52.558;13.188;2023-11-21T13:16:07;101201.19;;;4.75;100.00
829;BME280;396;52.558;13.188;2023-11-21T13:18:35;101193.81;;;4.65;100.00
829;BME280;396;52.558;13.188;2023-11-21T13:21:03;101204.97;;;4.57;100.00
829;BME280;396;52.558;13.188;2023-11-21T13:23:35;101192.91;;;4.60;100.00
829;BME280;396;52.558;13.188;2023-11-21T13:26:05;101196.31;;;4.55;100.00